Latest Weather Observations for Swan Island

IDT60801

Issued at 10:05 pm EST Monday 28 July 2014 (issued every 30 minutes, with the page automatically refreshed every 10 minutes)

About weather observations | Map of weather stations | Latest weather observations for TAS | Other Formats
Station Details ID: 092123 Name: SWAN ISLAND Lat: -40.73 Lon: 148.12 Height: 15.0 m
Data from the previous 72 hours. | See also: Recent months at Swan Island
Date/Time
EST
Temp
°C
App
Temp
°C
Dew
Point
Rel
Hum
%
Delta-T
°C
Wind Press
QNH
hPa
Press
MSL
hPa
Rain
since 9 am
mm
Dir
 
Spd
km/h
Gust
km/h
Spd
kts
Gust
kts
28/10:00pm 11.7 - - - - NW 33 44 18 24 1007.3 1007.4 10.0
28/09:30pm 11.1 - - - - WNW 32 41 17 22 1007.4 - 9.6
28/09:00pm 10.7 - - - - WNW 32 46 17 25 1008.2 1008.3 9.4
28/08:39pm 11.5 - - - - W 30 50 16 27 1008.3 - 7.0
28/08:30pm 11.4 - - - - WNW 26 37 14 20 1008.0 - 5.6
28/08:00pm 10.8 - - - - WNW 24 35 13 19 1007.7 1007.8 5.2
28/07:30pm 10.2 - - - - WNW 28 43 15 23 1008.1 - 3.6
28/07:25pm 10.2 - - - - WNW 33 54 18 29 1008.1 - 3.0
28/07:17pm 10.3 - - - - W 44 54 24 29 1008.3 - 1.6
28/07:00pm 11.9 - - - - WNW 24 33 13 18 1007.6 1007.7 0.8
28/06:30pm 12.2 - - - - NW 37 50 20 27 1007.6 - 0.8
28/06:00pm 12.8 - - - - NW 33 44 18 24 1007.2 1007.3 0.0
28/05:30pm 13.0 - - - - NW 37 48 20 26 1006.9 - 0.0
28/05:00pm 12.9 - - - - NW 43 54 23 29 1007.3 1007.4 0.0
28/04:30pm 13.0 - - - - NW 35 48 19 26 1007.0 - 0.0
28/04:00pm 13.1 - - - - NW 43 54 23 29 1007.1 1007.2 0.0
28/03:30pm 13.4 - - - - NW 44 57 24 31 1007.1 - 0.0
28/03:00pm 13.9 - - - - WNW 44 57 24 31 1007.2 1007.3 0.0
28/02:30pm 14.0 - - - - WNW 44 56 24 30 1007.2 - 0.0
28/02:00pm 14.2 - - - - WNW 46 57 25 31 1007.1 1007.2 0.0
28/01:30pm 14.2 - - - - WNW 48 59 26 32 1007.2 - 0.0
28/01:00pm 14.4 - - - - NW 44 56 24 30 1007.6 1007.7 0.0
28/12:30pm 14.3 - - - - WNW 46 61 25 33 1008.1 - 0.0
28/12:00pm 14.4 - - - - NW 46 57 25 31 1008.6 1008.7 0.0
28/11:30am 14.4 - - - - WNW 44 56 24 30 1009.1 - 0.0
28/11:00am 14.3 - - - - NW 43 57 23 31 1009.5 1009.6 0.0
28/10:30am 14.2 - - - - NW 39 52 21 28 1009.8 - 0.0
28/10:00am 14.1 - - - - NW 41 57 22 31 1009.9 1010.0 0.0
28/09:30am 13.9 - - - - NW 39 52 21 28 1010.2 - 0.0
28/09:00am 13.8 - - - - NW 39 52 21 28 1010.2 1010.3 0.0
28/08:30am 13.5 - - - - NW 43 57 23 31 1010.4 - 0.0
28/08:00am 13.1 - - - - NW 37 54 20 29 1010.7 1010.8 0.0
28/07:30am 12.9 - - - - NW 35 50 19 27 1011.0 - 0.0
28/07:00am 13.0 - - - - NW 39 54 21 29 1011.0 1011.0 0.0
28/06:30am 13.0 - - - - NW 39 54 21 29 1010.7 - 0.0
28/06:00am 12.9 - - - - NW 39 54 21 29 1010.6 1010.7 0.0
28/05:45am 12.9 - - - - NW 35 54 19 29 1010.7 - 0.0
28/05:30am 12.9 - - - - NW 37 50 20 27 1011.0 - 0.0
28/05:00am 12.9 - - - - NW 35 50 19 27 1011.2 1011.2 0.0
28/04:30am 12.8 - - - - NW 35 46 19 25 1011.5 - 0.0
28/04:00am 12.9 - - - - NW 37 48 20 26 1012.0 1012.0 0.0
28/03:30am 12.9 - - - - NW 37 50 20 27 1012.0 - 0.0
28/03:00am 12.9 - - - - NW 37 50 20 27 1012.4 1012.4 0.0
28/02:30am 12.9 - - - - NW 39 54 21 29 1012.8 - 0.0
28/02:00am 12.9 - - - - NW 37 48 20 26 1012.9 1012.9 0.0
28/01:30am 12.9 - - - - NW 35 48 19 26 1013.3 - 0.0
28/01:00am 12.9 - - - - NW 33 44 18 24 1013.6 1013.6 0.0
28/12:45am 12.9 - - - - NW 32 50 17 27 1013.8 - 0.0
28/12:30am 13.0 - - - - NW 32 46 17 25 1014.0 - 0.0
28/12:00am 13.1 - - - - NW 33 44 18 24 1014.3 1014.3 0.0
 
Date/Time
EST
Temp
°C
App
Temp
°C
Dew
Point
Rel
Hum
%
Delta-T
°C
Wind Press
QNH
hPa
Press
MSL
hPa
Rain
since 9 am
mm
Dir
 
Spd
km/h
Gust
km/h
Spd
kts
Gust
kts
27/11:30pm 13.0 - - - - NW 37 48 20 26 1014.6 - 0.0
27/11:00pm 13.0 - - - - NW 35 46 19 25 1014.6 1014.6 0.0
27/10:30pm 13.0 - - - - NW 35 44 19 24 1015.1 - 0.0
27/10:00pm 12.9 - - - - NW 30 39 16 21 1015.5 1015.5 0.0
27/09:30pm 12.9 - - - - NW 32 44 17 24 1015.6 - 0.0
27/09:00pm 12.8 - - - - NW 26 37 14 20 1016.0 1016.0 0.0
27/08:30pm 12.7 - - - - NW 30 37 16 20 1016.3 - 0.0
27/08:00pm 12.5 - - - - NW 30 39 16 21 1016.4 1016.4 0.0
27/07:30pm 12.4 - - - - NW 28 39 15 21 1016.6 - 0.0
27/07:00pm 12.4 - - - - NW 35 43 19 23 1016.8 1016.8 0.0
27/06:30pm 12.3 - - - - NW 33 43 18 23 1016.6 - 0.0
27/06:00pm 12.3 - - - - WNW 32 39 17 21 1016.7 1016.7 0.0
27/05:30pm 12.3 - - - - WNW 26 37 14 20 1016.6 - 0.0
27/05:00pm 12.3 - - - - NW 28 37 15 20 1016.6 1016.6 0.0
27/04:30pm 12.4 - - - - NW 24 33 13 18 1016.6 - 0.0
27/04:00pm 12.5 - - - - WNW 22 30 12 16 1017.0 1017.0 0.0
27/03:30pm 12.8 - - - - WNW 26 33 14 18 1017.2 - 0.0
27/03:00pm 12.8 - - - - WNW 24 33 13 18 1017.3 1017.3 0.0
27/02:30pm 13.2 - - - - WNW 24 32 13 17 1017.4 - 0.0
27/02:00pm 12.7 - - - - WNW 24 33 13 18 1017.7 1017.7 0.0
27/01:30pm 12.6 - - - - WNW 17 26 9 14 1018.0 - 0.0
27/01:00pm 12.9 - - - - WNW 17 24 9 13 1018.3 1018.3 0.0
27/12:30pm 12.6 - - - - W 19 26 10 14 1018.7 - 0.0
27/12:00pm 12.7 - - - - W 20 30 11 16 1019.2 1019.2 0.0
27/11:30am 11.8 - - - - W 26 32 14 17 1019.9 - 0.0
27/11:00am 11.9 - - - - W 15 24 8 13 1020.6 1020.6 0.0
27/10:30am 11.5 - - - - W 17 24 9 13 1021.0 - 0.0
27/10:00am 11.2 - - - - W 13 17 7 9 1021.1 1021.1 0.0
27/09:30am 10.2 - - - - WNW 11 17 6 9 1021.0 - 0.0
27/09:00am 9.9 - - - - WNW 11 17 6 9 1021.0 1021.0 1.0
27/08:30am 10.1 - - - - W 11 17 6 9 1021.0 - 1.0
27/08:00am 10.0 - - - - W 6 7 3 4 1021.0 1021.0 1.0
27/07:30am 9.8 - - - - WSW 7 11 4 6 1020.9 - 1.0
27/07:00am 10.0 - - - - W 11 17 6 9 1020.8 1020.8 1.0
27/06:30am 9.0 - - - - W 13 17 7 9 1020.7 - 1.0
27/06:00am 9.5 - - - - WNW 11 15 6 8 1020.4 1020.4 1.0
27/05:30am 9.1 - - - - WNW 9 13 5 7 1020.1 - 1.0
27/05:00am 9.3 - - - - W 11 13 6 7 1020.2 1020.2 1.0
27/04:30am 9.5 - - - - WNW 6 11 3 6 1020.3 - 1.0
27/04:00am 9.1 - - - - CALM 0 0 0 0 1020.4 1020.4 1.0
27/03:30am 8.8 - - - - W 4 4 2 2 1020.5 - 1.0
27/03:00am 8.4 - - - - SW 6 7 3 4 1020.4 1020.4 0.8
27/02:30am 8.8 - - - - WSW 7 9 4 5 1020.6 - 0.8
27/02:00am 9.6 - - - - SW 2 4 1 2 1020.7 1020.7 0.8
27/01:30am 9.6 - - - - WSW 7 7 4 4 1020.8 - 0.8
27/01:00am 9.5 - - - - WSW 6 7 3 4 1020.8 1020.8 0.8
27/12:30am 10.1 - - - - WSW 6 7 3 4 1021.1 - 0.8
27/12:00am 10.4 - - - - WSW 7 7 4 4 1021.1 1021.1 0.8
 
Date/Time
EST
Temp
°C
App
Temp
°C
Dew
Point
Rel
Hum
%
Delta-T
°C
Wind Press
QNH
hPa
Press
MSL
hPa
Rain
since 9 am
mm
Dir
 
Spd
km/h
Gust
km/h
Spd
kts
Gust
kts
26/11:30pm 10.0 - - - - W 9 9 5 5 1021.1 - 0.8
26/11:00pm 10.7 - - - - WSW 7 7 4 4 1021.1 1021.1 0.8
26/10:30pm 11.4 - - - - W 9 13 5 7 1021.3 - 0.8
26/10:00pm 11.4 - - - - W 9 11 5 6 1021.2 1021.2 0.8
26/09:30pm 11.2 - - - - W 9 15 5 8 1021.0 - 0.8
26/09:00pm 11.2 - - - - SW 6 7 3 4 1020.8 1020.8 0.8
26/08:30pm 11.2 - - - - SSW 6 7 3 4 1020.6 - 0.8
26/08:00pm 11.0 - - - - SSW 6 7 3 4 1020.5 1020.5 0.8
26/07:30pm 10.7 - - - - WSW 7 9 4 5 1020.3 - 0.8
26/07:00pm 11.0 - - - - WSW 6 7 3 4 1020.2 1020.2 0.8
26/06:30pm 11.4 - - - - W 9 11 5 6 1019.9 - 0.8
26/06:00pm 11.6 - - - - WNW 7 9 4 5 1019.8 1019.8 0.8
26/05:30pm 11.5 - - - - W 6 7 3 4 1019.7 - 0.8
26/05:00pm 11.9 - - - - WNW 6 7 3 4 1019.3 1019.3 0.8
26/04:30pm 12.7 - - - - WNW 7 11 4 6 1019.0 - 0.8
26/04:00pm 13.3 - - - - NW 6 7 3 4 1018.9 1018.9 0.8
26/03:30pm 13.7 - - - - NW 6 9 3 5 1018.9 - 0.8
26/03:00pm 13.0 - - - - NW 6 7 3 4 1018.7 1018.7 0.8
26/02:30pm 13.3 - - - - NW 7 9 4 5 1018.7 - 0.8
26/02:00pm 13.1 - - - - NW 7 11 4 6 1018.7 1018.7 0.8
26/01:30pm 13.2 - - - - NW 9 11 5 6 1018.6 - 0.8
26/01:00pm 13.0 - - - - NW 7 9 4 5 1019.0 1019.0 0.8
26/12:30pm 12.8 - - - - N 6 6 3 3 1019.3 - 0.8
26/12:00pm 12.8 - - - - N 7 9 4 5 1019.5 1019.5 0.8
26/11:30am 13.1 - - - - NNE 4 6 2 3 1019.9 - 0.8
26/11:00am 12.6 - - - - ENE 4 4 2 2 1020.2 1020.2 0.8
26/10:30am 12.4 - - - - ENE 4 4 2 2 1020.4 - 0.4
26/10:00am 12.4 - - - - ENE 2 4 1 2 1020.4 1020.4 0.0
26/09:30am 12.5 - - - - E 6 6 3 3 1020.3 - 0.0
26/09:00am 12.0 - - - - E 4 6 2 3 1020.3 1020.3 10.4
26/08:30am 11.2 - - - - SSE 4 6 2 3 1020.0 - 10.4
26/08:00am 10.8 - - - - SSE 6 9 3 5 1019.9 1019.9 10.4
26/07:30am 10.8 - - - - S 7 9 4 5 1019.8 - 9.8
26/07:00am 10.8 - - - - S 6 7 3 4 1019.7 1019.7 8.8
26/06:30am 10.6 - - - - SSE 7 7 4 4 1019.3 - 5.2
26/06:00am 10.6 - - - - SSE 7 9 4 5 1019.2 1019.2 5.2
26/05:30am 10.3 - - - - SSE 7 7 4 4 1019.1 - 5.2
26/05:00am 10.1 - - - - S 7 9 4 5 1019.0 1019.0 5.2
26/04:30am 10.2 - - - - S 7 7 4 4 1018.9 - 5.2
26/04:00am 10.7 - - - - S 6 7 3 4 1018.7 1018.7 5.2
26/03:30am 10.7 - - - - WSW 4 6 2 3 1018.7 - 5.2
26/03:00am 10.9 - - - - W 4 6 2 3 1018.8 1018.8 5.0
26/02:30am 11.2 - - - - WNW 6 7 3 4 1018.9 - 5.0
26/02:00am 11.2 - - - - NW 6 9 3 5 1018.7 1018.7 5.0
26/01:30am 11.4 - - - - NNW 9 11 5 6 1018.7 - 5.0
26/01:00am 11.3 - - - - NW 7 11 4 6 1018.9 1018.9 5.0
26/12:30am 11.3 - - - - NW 7 9 4 5 1018.9 - 4.8
26/12:00am 11.3 - - - - NNW 15 19 8 10 1019.2 1019.2 4.0
 
Date/Time
EST
Temp
°C
App
Temp
°C
Dew
Point
Rel
Hum
%
Delta-T
°C
Wind Press
QNH
hPa
Press
MSL
hPa
Rain
since 9 am
mm
Dir
 
Spd
km/h
Gust
km/h
Spd
kts
Gust
kts
25/11:30pm 11.4 - - - - NNW 7 11 4 6 1019.2 - 3.8
25/11:00pm 11.8 - - - - ESE 6 7 3 4 1019.0 1019.0 3.8
25/10:30pm 11.5 - - - - ESE 6 6 3 3 1019.0 - 3.8

Other Formats:

Comma delimited format used in spreadsheet applications
http://www.bom.gov.au/fwo/IDT60801/IDT60801.95985.axf

JavaScript Object Notation format (JSON) in row-major order
http://www.bom.gov.au/fwo/IDT60801/IDT60801.95985.json